sensor_id;sensor_type;location;lat;lon;timestamp;P1;durP1;ratioP1;P2;durP2;ratioP2
9080;SDS011;13509;50.760;6.080;2024-02-14T00:01:32;6.30;;;1.57;;
9080;SDS011;13509;50.760;6.080;2024-02-14T00:04:01;2.73;;;1.50;;
9080;SDS011;13509;50.760;6.080;2024-02-14T00:06:29;1.73;;;1.37;;
9080;SDS011;13509;50.760;6.080;2024-02-14T00:09:02;1.43;;;1.27;;
9080;SDS011;13509;50.760;6.080;2024-02-14T00:11:31;1.80;;;1.40;;
9080;SDS011;13509;50.760;6.080;2024-02-14T00:14:00;1.80;;;1.43;;
9080;SDS011;13509;50.760;6.080;2024-02-14T00:16:28;1.33;;;1.20;;
9080;SDS011;13509;50.760;6.080;2024-02-14T00:18:57;3.43;;;1.20;;
9080;SDS011;13509;50.760;6.080;2024-02-14T00:21:27;1.63;;;1.20;;
9080;SDS011;13509;50.760;6.080;2024-02-14T00:23:55;1.83;;;1.50;;
9080;SDS011;13509;50.760;6.080;2024-02-14T00:26:24;2.30;;;1.10;;
9080;SDS011;13509;50.760;6.080;2024-02-14T00:28:53;1.33;;;1.00;;
9080;SDS011;13509;50.760;6.080;2024-02-14T00:31:21;1.03;;;1.00;;
9080;SDS011;13509;50.760;6.080;2024-02-14T00:33:50;3.53;;;1.30;;
9080;SDS011;13509;50.760;6.080;2024-02-14T00:36:18;1.60;;;1.10;;
9080;SDS011;13509;50.760;6.080;2024-02-14T00:38:48;3.77;;;1.63;;
9080;SDS011;13509;50.760;6.080;2024-02-14T00:41:17;2.20;;;1.10;;
9080;SDS011;13509;50.760;6.080;2024-02-14T00:43:45;2.90;;;1.13;;
9080;SDS011;13509;50.760;6.080;2024-02-14T00:46:15;3.40;;;1.20;;
9080;SDS011;13509;50.760;6.080;2024-02-14T00:48:44;2.03;;;1.10;;
9080;SDS011;13509;50.760;6.080;2024-02-14T00:51:13;1.77;;;0.90;;
9080;SDS011;13509;50.760;6.080;2024-02-14T00:53:41;2.43;;;1.20;;
9080;SDS011;13509;50.760;6.080;2024-02-14T00:56:11;0.80;;;0.80;;
9080;SDS011;13509;50.760;6.080;2024-02-14T00:58:39;2.13;;;1.20;;
9080;SDS011;13509;50.760;6.080;2024-02-14T01:01:08;1.60;;;1.30;;
9080;SDS011;13509;50.760;6.080;2024-02-14T01:03:36;1.93;;;1.20;;
9080;SDS011;13509;50.760;6.080;2024-02-14T01:06:04;1.53;;;1.40;;
9080;SDS011;13509;50.760;6.080;2024-02-14T01:08:33;2.20;;;1.23;;
9080;SDS011;13509;50.760;6.080;2024-02-14T01:11:02;2.47;;;1.17;;
9080;SDS011;13509;50.760;6.080;2024-02-14T01:13:32;1.07;;;1.00;;
9080;SDS011;13509;50.760;6.080;2024-02-14T01:16:00;1.87;;;1.10;;
9080;SDS011;13509;50.760;6.080;2024-02-14T01:18:29;3.93;;;1.30;;
9080;SDS011;13509;50.760;6.080;2024-02-14T01:20:58;2.50;;;1.10;;
9080;SDS011;13509;50.760;6.080;2024-02-14T01:23:27;1.20;;;1.03;;
9080;SDS011;13509;50.760;6.080;2024-02-14T01:25:55;2.07;;;1.23;;
9080;SDS011;13509;50.760;6.080;2024-02-14T01:28:23;3.27;;;1.27;;
9080;SDS011;13509;50.760;6.080;2024-02-14T01:30:53;2.23;;;1.40;;
9080;SDS011;13509;50.760;6.080;2024-02-14T01:33:23;1.97;;;1.37;;
9080;SDS011;13509;50.760;6.080;2024-02-14T01:35:51;1.20;;;1.03;;
9080;SDS011;13509;50.760;6.080;2024-02-14T01:38:20;1.97;;;1.17;;
9080;SDS011;13509;50.760;6.080;2024-02-14T01:40:48;2.97;;;1.10;;
9080;SDS011;13509;50.760;6.080;2024-02-14T01:43:16;3.57;;;1.10;;
9080;SDS011;13509;50.760;6.080;2024-02-14T01:45:45;1.73;;;1.10;;
9080;SDS011;13509;50.760;6.080;2024-02-14T01:48:15;2.10;;;1.20;;
9080;SDS011;13509;50.760;6.080;2024-02-14T01:50:45;1.57;;;1.27;;
9080;SDS011;13509;50.760;6.080;2024-02-14T01:53:13;2.00;;;1.13;;
9080;SDS011;13509;50.760;6.080;2024-02-14T01:55:42;1.20;;;1.03;;
9080;SDS011;13509;50.760;6.080;2024-02-14T01:58:11;2.67;;;1.37;;
9080;SDS011;13509;50.760;6.080;2024-02-14T02:00:39;2.23;;;1.13;;
9080;SDS011;13509;50.760;6.080;2024-02-14T02:03:09;2.37;;;1.70;;
9080;SDS011;13509;50.760;6.080;2024-02-14T02:05:38;2.87;;;1.30;;
9080;SDS011;13509;50.760;6.080;2024-02-14T02:08:07;2.97;;;1.33;;
9080;SDS011;13509;50.760;6.080;2024-02-14T02:10:36;1.30;;;1.20;;
9080;SDS011;13509;50.760;6.080;2024-02-14T02:13:05;1.80;;;1.33;;
9080;SDS011;13509;50.760;6.080;2024-02-14T02:15:33;3.73;;;1.40;;
9080;SDS011;13509;50.760;6.080;2024-02-14T02:18:02;1.67;;;1.30;;
9080;SDS011;13509;50.760;6.080;2024-02-14T02:20:32;1.30;;;1.20;;
9080;SDS011;13509;50.760;6.080;2024-02-14T02:23:02;1.93;;;1.40;;
9080;SDS011;13509;50.760;6.080;2024-02-14T02:25:31;2.93;;;1.20;;
9080;SDS011;13509;50.760;6.080;2024-02-14T02:27:59;1.87;;;1.40;;
9080;SDS011;13509;50.760;6.080;2024-02-14T02:30:28;1.60;;;1.50;;
9080;SDS011;13509;50.760;6.080;2024-02-14T02:32:56;1.70;;;1.43;;
9080;SDS011;13509;50.760;6.080;2024-02-14T02:35:25;2.33;;;1.53;;
9080;SDS011;13509;50.760;6.080;2024-02-14T02:37:53;1.73;;;1.63;;
9080;SDS011;13509;50.760;6.080;2024-02-14T02:40:23;2.23;;;1.80;;
9080;SDS011;13509;50.760;6.080;2024-02-14T02:42:52;1.70;;;1.50;;
9080;SDS011;13509;50.760;6.080;2024-02-14T02:45:20;2.57;;;1.50;;
9080;SDS011;13509;50.760;6.080;2024-02-14T02:47:49;2.30;;;1.70;;
9080;SDS011;13509;50.760;6.080;2024-02-14T02:50:21;1.97;;;1.77;;
9080;SDS011;13509;50.760;6.080;2024-02-14T02:52:50;3.17;;;1.77;;
9080;SDS011;13509;50.760;6.080;2024-02-14T02:55:18;3.00;;;1.73;;
9080;SDS011;13509;50.760;6.080;2024-02-14T02:57:48;2.10;;;1.80;;
9080;SDS011;13509;50.760;6.080;2024-02-14T03:00:16;3.13;;;1.80;;
9080;SDS011;13509;50.760;6.080;2024-02-14T03:02:47;2.80;;;1.90;;
9080;SDS011;13509;50.760;6.080;2024-02-14T03:05:16;2.63;;;1.80;;
9080;SDS011;13509;50.760;6.080;2024-02-14T03:07:45;2.50;;;1.87;;
9080;SDS011;13509;50.760;6.080;2024-02-14T03:10:16;2.40;;;1.90;;
9080;SDS011;13509;50.760;6.080;2024-02-14T03:12:45;3.47;;;2.00;;
9080;SDS011;13509;50.760;6.080;2024-02-14T03:15:15;2.87;;;2.13;;
9080;SDS011;13509;50.760;6.080;2024-02-14T03:17:45;2.43;;;2.17;;
9080;SDS011;13509;50.760;6.080;2024-02-14T03:20:13;3.17;;;2.17;;
9080;SDS011;13509;50.760;6.080;2024-02-14T03:22:44;3.40;;;2.00;;
9080;SDS011;13509;50.760;6.080;2024-02-14T03:25:16;3.57;;;2.20;;
9080;SDS011;13509;50.760;6.080;2024-02-14T03:27:44;5.80;;;2.33;;
9080;SDS011;13509;50.760;6.080;2024-02-14T03:30:13;3.83;;;2.00;;
9080;SDS011;13509;50.760;6.080;2024-02-14T03:32:44;3.50;;;2.07;;
9080;SDS011;13509;50.760;6.080;2024-02-14T03:35:13;4.63;;;2.20;;
9080;SDS011;13509;50.760;6.080;2024-02-14T03:37:41;4.97;;;2.20;;
9080;SDS011;13509;50.760;6.080;2024-02-14T03:40:14;2.83;;;2.00;;
9080;SDS011;13509;50.760;6.080;2024-02-14T03:42:42;2.93;;;2.00;;
9080;SDS011;13509;50.760;6.080;2024-02-14T03:45:11;2.30;;;2.10;;
9080;SDS011;13509;50.760;6.080;2024-02-14T03:47:40;3.70;;;2.00;;
9080;SDS011;13509;50.760;6.080;2024-02-14T03:50:10;2.97;;;1.90;;
9080;SDS011;13509;50.760;6.080;2024-02-14T03:52:38;2.33;;;2.13;;
9080;SDS011;13509;50.760;6.080;2024-02-14T03:55:08;2.53;;;2.10;;
9080;SDS011;13509;50.760;6.080;2024-02-14T03:57:39;2.87;;;2.40;;
9080;SDS011;13509;50.760;6.080;2024-02-14T04:00:08;4.00;;;2.40;;
9080;SDS011;13509;50.760;6.080;2024-02-14T04:02:38;2.53;;;2.07;;
9080;SDS011;13509;50.760;6.080;2024-02-14T04:05:07;4.73;;;2.17;;
9080;SDS011;13509;50.760;6.080;2024-02-14T04:07:37;3.93;;;1.80;;
9080;SDS011;13509;50.760;6.080;2024-02-14T04:10:06;2.97;;;1.97;;
9080;SDS011;13509;50.760;6.080;2024-02-14T04:12:35;4.10;;;2.70;;
9080;SDS011;13509;50.760;6.080;2024-02-14T04:15:04;4.67;;;2.20;;
9080;SDS011;13509;50.760;6.080;2024-02-14T04:17:32;3.30;;;2.13;;
9080;SDS011;13509;50.760;6.080;2024-02-14T04:20:01;3.97;;;2.37;;
9080;SDS011;13509;50.760;6.080;2024-02-14T04:22:29;3.50;;;2.57;;
9080;SDS011;13509;50.760;6.080;2024-02-14T04:24:59;4.13;;;2.60;;
9080;SDS011;13509;50.760;6.080;2024-02-14T04:27:28;3.23;;;2.20;;
9080;SDS011;13509;50.760;6.080;2024-02-14T04:29:56;2.50;;;2.30;;
9080;SDS011;13509;50.760;6.080;2024-02-14T04:32:25;4.20;;;2.40;;
9080;SDS011;13509;50.760;6.080;2024-02-14T04:34:53;4.60;;;2.40;;
9080;SDS011;13509;50.760;6.080;2024-02-14T04:37:23;3.17;;;2.20;;
9080;SDS011;13509;50.760;6.080;2024-02-14T04:40:15;4.07;;;2.10;;
9080;SDS011;13509;50.760;6.080;2024-02-14T04:42:47;2.57;;;2.20;;
9080;SDS011;13509;50.760;6.080;2024-02-14T04:45:15;3.33;;;2.70;;
9080;SDS011;13509;50.760;6.080;2024-02-14T04:47:46;5.43;;;2.53;;
9080;SDS011;13509;50.760;6.080;2024-02-14T04:50:15;3.63;;;2.37;;
9080;SDS011;13509;50.760;6.080;2024-02-14T04:52:45;4.83;;;2.73;;
9080;SDS011;13509;50.760;6.080;2024-02-14T04:55:14;4.80;;;2.87;;
9080;SDS011;13509;50.760;6.080;2024-02-14T04:57:43;3.33;;;2.40;;
9080;SDS011;13509;50.760;6.080;2024-02-14T05:00:11;3.73;;;2.43;;
9080;SDS011;13509;50.760;6.080;2024-02-14T05:02:40;5.07;;;2.33;;
9080;SDS011;13509;50.760;6.080;2024-02-14T05:05:09;4.23;;;2.47;;
9080;SDS011;13509;50.760;6.080;2024-02-14T05:07:37;2.50;;;2.23;;
9080;SDS011;13509;50.760;6.080;2024-02-14T05:10:06;3.77;;;2.63;;
9080;SDS011;13509;50.760;6.080;2024-02-14T05:12:36;2.40;;;2.03;;
9080;SDS011;13509;50.760;6.080;2024-02-14T05:15:04;3.33;;;2.40;;
9080;SDS011;13509;50.760;6.080;2024-02-14T05:17:33;3.13;;;2.40;;
9080;SDS011;13509;50.760;6.080;2024-02-14T05:20:01;3.53;;;2.60;;
9080;SDS011;13509;50.760;6.080;2024-02-14T05:22:35;2.50;;;2.30;;
9080;SDS011;13509;50.760;6.080;2024-02-14T05:25:05;3.03;;;2.40;;
9080;SDS011;13509;50.760;6.080;2024-02-14T05:27:36;3.27;;;2.47;;
9080;SDS011;13509;50.760;6.080;2024-02-14T05:30:05;4.20;;;2.30;;
9080;SDS011;13509;50.760;6.080;2024-02-14T05:32:34;5.20;;;2.87;;
9080;SDS011;13509;50.760;6.080;2024-02-14T05:35:03;2.50;;;2.30;;
9080;SDS011;13509;50.760;6.080;2024-02-14T05:37:32;3.53;;;2.50;;
9080;SDS011;13509;50.760;6.080;2024-02-14T05:40:04;4.33;;;2.73;;
9080;SDS011;13509;50.760;6.080;2024-02-14T05:42:33;4.70;;;2.37;;
9080;SDS011;13509;50.760;6.080;2024-02-14T05:45:04;5.00;;;2.80;;
9080;SDS011;13509;50.760;6.080;2024-02-14T05:47:36;5.10;;;2.53;;
9080;SDS011;13509;50.760;6.080;2024-02-14T05:50:05;4.17;;;2.60;;
9080;SDS011;13509;50.760;6.080;2024-02-14T05:52:35;3.37;;;2.13;;
9080;SDS011;13509;50.760;6.080;2024-02-14T05:55:03;3.97;;;2.57;;
9080;SDS011;13509;50.760;6.080;2024-02-14T05:57:32;5.47;;;2.63;;
9080;SDS011;13509;50.760;6.080;2024-02-14T06:00:00;3.00;;;2.60;;
9080;SDS011;13509;50.760;6.080;2024-02-14T06:02:31;3.17;;;2.60;;
9080;SDS011;13509;50.760;6.080;2024-02-14T06:05:00;3.27;;;2.43;;
9080;SDS011;13509;50.760;6.080;2024-02-14T06:07:28;2.83;;;2.47;;
9080;SDS011;13509;50.760;6.080;2024-02-14T06:09:57;2.63;;;2.40;;
9080;SDS011;13509;50.760;6.080;2024-02-14T06:12:25;3.30;;;2.70;;
9080;SDS011;13509;50.760;6.080;2024-02-14T06:14:53;4.27;;;2.90;;
9080;SDS011;13509;50.760;6.080;2024-02-14T06:17:22;3.03;;;2.30;;
9080;SDS011;13509;50.760;6.080;2024-02-14T06:19:51;4.80;;;3.13;;
9080;SDS011;13509;50.760;6.080;2024-02-14T06:22:21;4.00;;;2.80;;
9080;SDS011;13509;50.760;6.080;2024-02-14T06:24:50;3.73;;;2.70;;
9080;SDS011;13509;50.760;6.080;2024-02-14T06:27:18;3.13;;;2.33;;
9080;SDS011;13509;50.760;6.080;2024-02-14T06:29:47;3.33;;;2.80;;
9080;SDS011;13509;50.760;6.080;2024-02-14T06:32:15;3.73;;;2.50;;
9080;SDS011;13509;50.760;6.080;2024-02-14T06:34:46;3.40;;;2.40;;
9080;SDS011;13509;50.760;6.080;2024-02-14T06:37:16;5.37;;;2.63;;
9080;SDS011;13509;50.760;6.080;2024-02-14T06:39:44;4.30;;;2.70;;
9080;SDS011;13509;50.760;6.080;2024-02-14T06:42:14;4.13;;;2.63;;
9080;SDS011;13509;50.760;6.080;2024-02-14T06:44:43;4.47;;;2.70;;
9080;SDS011;13509;50.760;6.080;2024-02-14T06:47:12;4.33;;;2.80;;
9080;SDS011;13509;50.760;6.080;2024-02-14T06:49:40;4.13;;;2.83;;
9080;SDS011;13509;50.760;6.080;2024-02-14T06:52:08;3.73;;;2.30;;
9080;SDS011;13509;50.760;6.080;2024-02-14T06:54:38;5.43;;;2.53;;
9080;SDS011;13509;50.760;6.080;2024-02-14T06:57:06;6.07;;;2.60;;
9080;SDS011;13509;50.760;6.080;2024-02-14T06:59:35;3.30;;;2.70;;
9080;SDS011;13509;50.760;6.080;2024-02-14T07:02:04;5.60;;;2.90;;
9080;SDS011;13509;50.760;6.080;2024-02-14T07:04:39;6.27;;;2.73;;
9080;SDS011;13509;50.760;6.080;2024-02-14T07:07:10;3.77;;;2.80;;
9080;SDS011;13509;50.760;6.080;2024-02-14T07:09:39;7.70;;;2.60;;
9080;SDS011;13509;50.760;6.080;2024-02-14T07:12:08;4.50;;;2.67;;
9080;SDS011;13509;50.760;6.080;2024-02-14T07:14:36;2.50;;;2.30;;
9080;SDS011;13509;50.760;6.080;2024-02-14T07:17:05;3.57;;;2.60;;
9080;SDS011;13509;50.760;6.080;2024-02-14T07:19:33;3.70;;;2.60;;
9080;SDS011;13509;50.760;6.080;2024-02-14T07:22:02;2.80;;;2.30;;
9080;SDS011;13509;50.760;6.080;2024-02-14T07:24:30;2.83;;;2.53;;
9080;SDS011;13509;50.760;6.080;2024-02-14T07:27:00;4.53;;;2.60;;
9080;SDS011;13509;50.760;6.080;2024-02-14T07:29:28;4.23;;;2.30;;
9080;SDS011;13509;50.760;6.080;2024-02-14T07:31:58;3.67;;;2.60;;
9080;SDS011;13509;50.760;6.080;2024-02-14T07:34:27;5.67;;;2.73;;
9080;SDS011;13509;50.760;6.080;2024-02-14T07:36:55;4.07;;;2.60;;
9080;SDS011;13509;50.760;6.080;2024-02-14T07:39:24;5.37;;;2.60;;
9080;SDS011;13509;50.760;6.080;2024-02-14T07:41:52;6.50;;;2.43;;
9080;SDS011;13509;50.760;6.080;2024-02-14T07:44:22;4.23;;;2.73;;
9080;SDS011;13509;50.760;6.080;2024-02-14T07:46:50;4.13;;;2.43;;
9080;SDS011;13509;50.760;6.080;2024-02-14T07:49:19;5.23;;;2.27;;
9080;SDS011;13509;50.760;6.080;2024-02-14T07:51:47;4.07;;;2.27;;
9080;SDS011;13509;50.760;6.080;2024-02-14T07:54:16;3.27;;;2.10;;
9080;SDS011;13509;50.760;6.080;2024-02-14T07:56:45;3.93;;;2.40;;
9080;SDS011;13509;50.760;6.080;2024-02-14T07:59:13;2.13;;;1.93;;
9080;SDS011;13509;50.760;6.080;2024-02-14T08:01:43;3.07;;;2.03;;
9080;SDS011;13509;50.760;6.080;2024-02-14T08:04:12;5.13;;;2.20;;
9080;SDS011;13509;50.760;6.080;2024-02-14T08:06:40;4.43;;;2.13;;
9080;SDS011;13509;50.760;6.080;2024-02-14T08:09:09;3.77;;;1.93;;
9080;SDS011;13509;50.760;6.080;2024-02-14T08:11:37;5.03;;;2.07;;
9080;SDS011;13509;50.760;6.080;2024-02-14T08:14:06;3.60;;;1.83;;
9080;SDS011;13509;50.760;6.080;2024-02-14T08:16:34;2.30;;;2.10;;
9080;SDS011;13509;50.760;6.080;2024-02-14T08:19:04;2.43;;;1.70;;
9080;SDS011;13509;50.760;6.080;2024-02-14T08:21:33;2.27;;;1.60;;
9080;SDS011;13509;50.760;6.080;2024-02-14T08:24:02;4.00;;;1.70;;
9080;SDS011;13509;50.760;6.080;2024-02-14T08:26:31;2.83;;;1.80;;
9080;SDS011;13509;50.760;6.080;2024-02-14T08:28:59;3.87;;;1.67;;
9080;SDS011;13509;50.760;6.080;2024-02-14T08:31:28;2.13;;;1.40;;
9080;SDS011;13509;50.760;6.080;2024-02-14T08:33:57;5.43;;;1.87;;
9080;SDS011;13509;50.760;6.080;2024-02-14T08:36:27;4.80;;;1.67;;
9080;SDS011;13509;50.760;6.080;2024-02-14T08:38:55;3.53;;;1.80;;
9080;SDS011;13509;50.760;6.080;2024-02-14T08:41:24;3.17;;;1.73;;
9080;SDS011;13509;50.760;6.080;2024-02-14T08:43:52;5.10;;;1.50;;
9080;SDS011;13509;50.760;6.080;2024-02-14T08:46:23;2.30;;;1.57;;
9080;SDS011;13509;50.760;6.080;2024-02-14T08:48:53;4.50;;;1.40;;
9080;SDS011;13509;50.760;6.080;2024-02-14T08:51:21;6.73;;;2.00;;
9080;SDS011;13509;50.760;6.080;2024-02-14T08:53:54;2.63;;;1.43;;
9080;SDS011;13509;50.760;6.080;2024-02-14T08:56:26;4.87;;;1.60;;
9080;SDS011;13509;50.760;6.080;2024-02-14T08:58:54;2.87;;;1.47;;
9080;SDS011;13509;50.760;6.080;2024-02-14T09:01:22;3.50;;;1.30;;
9080;SDS011;13509;50.760;6.080;2024-02-14T09:03:52;2.27;;;1.37;;
9080;SDS011;13509;50.760;6.080;2024-02-14T09:06:21;3.50;;;1.60;;
9080;SDS011;13509;50.760;6.080;2024-02-14T09:08:49;3.67;;;1.40;;
9080;SDS011;13509;50.760;6.080;2024-02-14T09:11:19;3.47;;;1.40;;
9080;SDS011;13509;50.760;6.080;2024-02-14T09:13:49;2.07;;;1.40;;
9080;SDS011;13509;50.760;6.080;2024-02-14T09:16:20;2.60;;;1.27;;
9080;SDS011;13509;50.760;6.080;2024-02-14T09:18:49;3.10;;;1.50;;
9080;SDS011;13509;50.760;6.080;2024-02-14T09:21:18;3.90;;;1.70;;
9080;SDS011;13509;50.760;6.080;2024-02-14T09:23:47;4.07;;;1.50;;
9080;SDS011;13509;50.760;6.080;2024-02-14T09:26:15;2.53;;;1.43;;
9080;SDS011;13509;50.760;6.080;2024-02-14T09:28:45;3.87;;;1.33;;
9080;SDS011;13509;50.760;6.080;2024-02-14T09:31:17;3.47;;;1.47;;
9080;SDS011;13509;50.760;6.080;2024-02-14T09:33:46;2.83;;;1.33;;
9080;SDS011;13509;50.760;6.080;2024-02-14T09:36:15;2.13;;;1.20;;
9080;SDS011;13509;50.760;6.080;2024-02-14T09:38:45;1.67;;;1.20;;
9080;SDS011;13509;50.760;6.080;2024-02-14T09:41:15;2.30;;;1.33;;
9080;SDS011;13509;50.760;6.080;2024-02-14T09:43:44;3.80;;;1.43;;
9080;SDS011;13509;50.760;6.080;2024-02-14T09:46:13;2.57;;;1.30;;
9080;SDS011;13509;50.760;6.080;2024-02-14T09:48:42;2.70;;;1.10;;
9080;SDS011;13509;50.760;6.080;2024-02-14T09:51:10;2.90;;;1.30;;
9080;SDS011;13509;50.760;6.080;2024-02-14T09:53:40;4.87;;;1.47;;
9080;SDS011;13509;50.760;6.080;2024-02-14T09:56:10;3.20;;;1.70;;
9080;SDS011;13509;50.760;6.080;2024-02-14T09:58:39;7.23;;;1.73;;
9080;SDS011;13509;50.760;6.080;2024-02-14T10:01:09;5.40;;;1.27;;
9080;SDS011;13509;50.760;6.080;2024-02-14T10:03:38;3.13;;;1.50;;
9080;SDS011;13509;50.760;6.080;2024-02-14T10:06:06;5.00;;;1.40;;
9080;SDS011;13509;50.760;6.080;2024-02-14T10:08:34;2.80;;;1.10;;
9080;SDS011;13509;50.760;6.080;2024-02-14T10:11:14;4.57;;;1.20;;
9080;SDS011;13509;50.760;6.080;2024-02-14T10:13:44;4.80;;;1.43;;
9080;SDS011;13509;50.760;6.080;2024-02-14T10:16:14;5.23;;;1.80;;
9080;SDS011;13509;50.760;6.080;2024-02-14T10:18:47;2.97;;;1.27;;
9080;SDS011;13509;50.760;6.080;2024-02-14T10:21:16;2.33;;;1.30;;
9080;SDS011;13509;50.760;6.080;2024-02-14T10:23:45;4.97;;;1.30;;
9080;SDS011;13509;50.760;6.080;2024-02-14T10:26:16;4.63;;;1.47;;
9080;SDS011;13509;50.760;6.080;2024-02-14T10:28:44;7.30;;;1.40;;
9080;SDS011;13509;50.760;6.080;2024-02-14T10:31:17;6.10;;;1.30;;
9080;SDS011;13509;50.760;6.080;2024-02-14T10:33:46;2.63;;;1.50;;
9080;SDS011;13509;50.760;6.080;2024-02-14T10:36:14;2.97;;;1.30;;
9080;SDS011;13509;50.760;6.080;2024-02-14T10:38:44;3.50;;;1.67;;
9080;SDS011;13509;50.760;6.080;2024-02-14T10:41:16;6.53;;;1.93;;
9080;SDS011;13509;50.760;6.080;2024-02-14T10:43:45;2.93;;;1.40;;
9080;SDS011;13509;50.760;6.080;2024-02-14T10:46:19;3.97;;;1.30;;
9080;SDS011;13509;50.760;6.080;2024-02-14T10:48:49;2.63;;;1.30;;
9080;SDS011;13509;50.760;6.080;2024-02-14T10:51:18;5.30;;;1.50;;
9080;SDS011;13509;50.760;6.080;2024-02-14T10:53:48;5.23;;;1.37;;
9080;SDS011;13509;50.760;6.080;2024-02-14T10:56:18;3.57;;;1.70;;
9080;SDS011;13509;50.760;6.080;2024-02-14T10:58:47;7.27;;;1.63;;
9080;SDS011;13509;50.760;6.080;2024-02-14T11:01:17;3.20;;;1.50;;
9080;SDS011;13509;50.760;6.080;2024-02-14T11:03:47;4.97;;;1.50;;
9080;SDS011;13509;50.760;6.080;2024-02-14T11:06:16;3.67;;;1.30;;
9080;SDS011;13509;50.760;6.080;2024-02-14T11:08:55;6.77;;;1.50;;
9080;SDS011;13509;50.760;6.080;2024-02-14T11:11:24;2.47;;;1.30;;
9080;SDS011;13509;50.760;6.080;2024-02-14T11:13:53;3.23;;;1.50;;
9080;SDS011;13509;50.760;6.080;2024-02-14T11:16:24;2.57;;;0.93;;
9080;SDS011;13509;50.760;6.080;2024-02-14T11:19:05;4.33;;;1.70;;
9080;SDS011;13509;50.760;6.080;2024-02-14T11:21:36;2.77;;;1.33;;
9080;SDS011;13509;50.760;6.080;2024-02-14T11:24:05;2.80;;;1.20;;
9080;SDS011;13509;50.760;6.080;2024-02-14T11:26:46;1.43;;;1.13;;
9080;SDS011;13509;50.760;6.080;2024-02-14T11:29:16;2.80;;;1.20;;
9080;SDS011;13509;50.760;6.080;2024-02-14T11:31:56;2.10;;;1.17;;
9080;SDS011;13509;50.760;6.080;2024-02-14T11:34:26;3.80;;;1.10;;
9080;SDS011;13509;50.760;6.080;2024-02-14T11:36:55;2.47;;;1.10;;
9080;SDS011;13509;50.760;6.080;2024-02-14T11:39:23;1.83;;;1.20;;
9080;SDS011;13509;50.760;6.080;2024-02-14T11:41:51;2.13;;;1.10;;
9080;SDS011;13509;50.760;6.080;2024-02-14T11:44:20;2.83;;;0.87;;
9080;SDS011;13509;50.760;6.080;2024-02-14T11:46:50;2.57;;;1.00;;
9080;SDS011;13509;50.760;6.080;2024-02-14T11:49:18;7.53;;;1.47;;
9080;SDS011;13509;50.760;6.080;2024-02-14T11:51:47;2.17;;;0.90;;
9080;SDS011;13509;50.760;6.080;2024-02-14T11:54:15;1.47;;;1.10;;
9080;SDS011;13509;50.760;6.080;2024-02-14T11:56:46;1.47;;;0.90;;
9080;SDS011;13509;50.760;6.080;2024-02-14T11:59:15;1.00;;;0.87;;
9080;SDS011;13509;50.760;6.080;2024-02-14T12:01:46;1.90;;;1.20;;
9080;SDS011;13509;50.760;6.080;2024-02-14T12:04:20;5.37;;;1.03;;
9080;SDS011;13509;50.760;6.080;2024-02-14T12:06:48;0.70;;;0.70;;
9080;SDS011;13509;50.760;6.080;2024-02-14T12:09:17;2.10;;;0.80;;
9080;SDS011;13509;50.760;6.080;2024-02-14T12:11:46;2.10;;;0.80;;
9080;SDS011;13509;50.760;6.080;2024-02-14T12:14:16;0.70;;;0.70;;
9080;SDS011;13509;50.760;6.080;2024-02-14T12:16:50;1.00;;;0.90;;
9080;SDS011;13509;50.760;6.080;2024-02-14T12:19:20;1.37;;;0.80;;
9080;SDS011;13509;50.760;6.080;2024-02-14T12:21:49;1.13;;;1.03;;
9080;SDS011;13509;50.760;6.080;2024-02-14T12:24:17;0.70;;;0.70;;
9080;SDS011;13509;50.760;6.080;2024-02-14T12:26:45;1.20;;;1.00;;
9080;SDS011;13509;50.760;6.080;2024-02-14T12:29:15;0.87;;;0.60;;
9080;SDS011;13509;50.760;6.080;2024-02-14T12:31:44;3.50;;;0.97;;
9080;SDS011;13509;50.760;6.080;2024-02-14T12:34:13;0.70;;;0.70;;
9080;SDS011;13509;50.760;6.080;2024-02-14T12:36:43;0.97;;;0.70;;
9080;SDS011;13509;50.760;6.080;2024-02-14T12:39:11;0.60;;;0.60;;
9080;SDS011;13509;50.760;6.080;2024-02-14T12:41:40;1.43;;;0.90;;
9080;SDS011;13509;50.760;6.080;2024-02-14T12:44:08;0.60;;;0.60;;
9080;SDS011;13509;50.760;6.080;2024-02-14T12:46:36;0.90;;;0.60;;
9080;SDS011;13509;50.760;6.080;2024-02-14T12:49:05;3.13;;;0.83;;
9080;SDS011;13509;50.760;6.080;2024-02-14T12:51:35;0.80;;;0.80;;
9080;SDS011;13509;50.760;6.080;2024-02-14T12:54:06;0.80;;;0.80;;
9080;SDS011;13509;50.760;6.080;2024-02-14T12:56:36;0.60;;;0.60;;
9080;SDS011;13509;50.760;6.080;2024-02-14T12:59:03;0.80;;;0.80;;
9080;SDS011;13509;50.760;6.080;2024-02-14T13:01:32;0.70;;;0.63;;
9080;SDS011;13509;50.760;6.080;2024-02-14T13:04:01;1.30;;;0.80;;
9080;SDS011;13509;50.760;6.080;2024-02-14T13:06:31;0.60;;;0.60;;
9080;SDS011;13509;50.760;6.080;2024-02-14T13:09:00;0.70;;;0.70;;
9080;SDS011;13509;50.760;6.080;2024-02-14T13:11:30;1.60;;;0.70;;
9080;SDS011;13509;50.760;6.080;2024-02-14T13:13:58;0.50;;;0.50;;
9080;SDS011;13509;50.760;6.080;2024-02-14T13:16:27;1.90;;;0.80;;
9080;SDS011;13509;50.760;6.080;2024-02-14T13:18:55;0.87;;;0.70;;
9080;SDS011;13509;50.760;6.080;2024-02-14T13:21:24;0.83;;;0.70;;
9080;SDS011;13509;50.760;6.080;2024-02-14T13:23:52;0.67;;;0.67;;
9080;SDS011;13509;50.760;6.080;2024-02-14T13:26:23;0.60;;;0.60;;
9080;SDS011;13509;50.760;6.080;2024-02-14T13:28:53;1.80;;;0.57;;
9080;SDS011;13509;50.760;6.080;2024-02-14T13:31:21;1.13;;;0.70;;
9080;SDS011;13509;50.760;6.080;2024-02-14T13:33:50;0.70;;;0.70;;
9080;SDS011;13509;50.760;6.080;2024-02-14T13:36:18;0.60;;;0.60;;
9080;SDS011;13509;50.760;6.080;2024-02-14T13:38:49;4.37;;;0.63;;
9080;SDS011;13509;50.760;6.080;2024-02-14T13:41:18;0.70;;;0.70;;
9080;SDS011;13509;50.760;6.080;2024-02-14T13:43:46;0.70;;;0.70;;
9080;SDS011;13509;50.760;6.080;2024-02-14T13:46:16;0.63;;;0.53;;
9080;SDS011;13509;50.760;6.080;2024-02-14T13:48:45;1.10;;;1.00;;
9080;SDS011;13509;50.760;6.080;2024-02-14T13:51:14;0.77;;;0.77;;
9080;SDS011;13509;50.760;6.080;2024-02-14T13:53:42;0.93;;;0.67;;
9080;SDS011;13509;50.760;6.080;2024-02-14T13:56:12;1.00;;;0.80;;
9080;SDS011;13509;50.760;6.080;2024-02-14T13:58:42;1.93;;;0.80;;
9080;SDS011;13509;50.760;6.080;2024-02-14T14:01:13;0.67;;;0.67;;
9080;SDS011;13509;50.760;6.080;2024-02-14T14:03:43;0.80;;;0.80;;
9080;SDS011;13509;50.760;6.080;2024-02-14T14:06:11;1.47;;;0.90;;
9080;SDS011;13509;50.760;6.080;2024-02-14T14:08:40;0.57;;;0.57;;
9080;SDS011;13509;50.760;6.080;2024-02-14T14:11:08;0.70;;;0.70;;
9080;SDS011;13509;50.760;6.080;2024-02-14T14:13:36;1.80;;;0.60;;
9080;SDS011;13509;50.760;6.080;2024-02-14T14:16:05;2.47;;;0.80;;
9080;SDS011;13509;50.760;6.080;2024-02-14T14:18:34;0.80;;;0.80;;
9080;SDS011;13509;50.760;6.080;2024-02-14T14:21:04;1.03;;;0.90;;
9080;SDS011;13509;50.760;6.080;2024-02-14T14:23:33;1.50;;;1.20;;
9080;SDS011;13509;50.760;6.080;2024-02-14T14:26:01;0.70;;;0.70;;
9080;SDS011;13509;50.760;6.080;2024-02-14T14:28:30;0.70;;;0.70;;
9080;SDS011;13509;50.760;6.080;2024-02-14T14:30:58;0.93;;;0.93;;
9080;SDS011;13509;50.760;6.080;2024-02-14T14:33:28;0.90;;;0.90;;
9080;SDS011;13509;50.760;6.080;2024-02-14T14:35:57;0.93;;;0.90;;
9080;SDS011;13509;50.760;6.080;2024-02-14T14:38:27;0.90;;;0.90;;
9080;SDS011;13509;50.760;6.080;2024-02-14T14:40:56;1.60;;;1.00;;
9080;SDS011;13509;50.760;6.080;2024-02-14T14:43:25;1.10;;;1.10;;
9080;SDS011;13509;50.760;6.080;2024-02-14T14:45:54;1.03;;;0.93;;
9080;SDS011;13509;50.760;6.080;2024-02-14T14:48:23;1.20;;;1.10;;
9080;SDS011;13509;50.760;6.080;2024-02-14T14:50:52;1.50;;;1.20;;
9080;SDS011;13509;50.760;6.080;2024-02-14T14:53:20;0.70;;;0.70;;
9080;SDS011;13509;50.760;6.080;2024-02-14T14:55:52;0.90;;;0.90;;
9080;SDS011;13509;50.760;6.080;2024-02-14T14:58:22;1.00;;;1.00;;
9080;SDS011;13509;50.760;6.080;2024-02-14T15:00:54;0.83;;;0.83;;
9080;SDS011;13509;50.760;6.080;2024-02-14T15:03:24;1.00;;;0.90;;
9080;SDS011;13509;50.760;6.080;2024-02-14T15:05:53;1.10;;;1.00;;
9080;SDS011;13509;50.760;6.080;2024-02-14T15:08:23;1.10;;;1.00;;
9080;SDS011;13509;50.760;6.080;2024-02-14T15:10:55;2.13;;;1.00;;
9080;SDS011;13509;50.760;6.080;2024-02-14T15:13:24;0.90;;;0.90;;